createdAt,value
2022-11-16T00:01:33.237Z,8.20
2022-11-16T00:04:02.290Z,8.20
2022-11-16T00:06:29.747Z,8.20
2022-11-16T00:09:18.247Z,8.10
2022-11-16T00:11:46.169Z,8.10
2022-11-16T00:14:13.159Z,8.10
2022-11-16T00:16:40.504Z,8.10
2022-11-16T00:19:08.454Z,8.10
2022-11-16T00:21:35.630Z,8.00
2022-11-16T00:24:03.120Z,8.00
2022-11-16T00:26:30.480Z,7.90
2022-11-16T00:28:57.671Z,7.90
2022-11-16T00:31:25.223Z,7.90
2022-11-16T00:33:52.720Z,7.90
2022-11-16T00:36:19.728Z,7.90
2022-11-16T00:38:47.389Z,7.90
2022-11-16T00:41:14.613Z,8.00
2022-11-16T00:43:41.763Z,8.00
2022-11-16T00:46:09.689Z,8.10
2022-11-16T00:48:36.970Z,8.10
2022-11-16T00:51:05.067Z,8.10
2022-11-16T00:53:32.514Z,8.10
2022-11-16T00:55:59.567Z,8.10
2022-11-16T00:58:26.502Z,8.10
2022-11-16T01:01:09.712Z,8.20
2022-11-16T01:03:37.794Z,8.20
2022-11-16T01:06:07.407Z,8.20
2022-11-16T01:08:37.200Z,8.10
2022-11-16T01:11:23.466Z,8.10
2022-11-16T01:13:50.466Z,8.10
2022-11-16T01:16:20.086Z,8.10
2022-11-16T01:18:52.661Z,8.10
2022-11-16T01:21:20.282Z,8.10
2022-11-16T01:23:47.481Z,8.00
2022-11-16T01:26:14.771Z,8.00
2022-11-16T01:28:42.833Z,8.00
2022-11-16T01:31:11.739Z,8.00
2022-11-16T01:33:39.830Z,8.10
2022-11-16T01:36:17.172Z,8.10
2022-11-16T01:38:46.152Z,8.10
2022-11-16T01:41:20.760Z,8.10
2022-11-16T01:44:06.352Z,8.10
2022-11-16T01:46:43.219Z,8.10
2022-11-16T01:49:17.083Z,8.10
2022-11-16T01:51:49.901Z,8.10
2022-11-16T01:54:18.605Z,8.10
2022-11-16T01:56:57.210Z,8.10
2022-11-16T01:59:32.736Z,8.10
2022-11-16T02:02:01.065Z,8.10
2022-11-16T02:04:29.325Z,8.00
2022-11-16T02:07:28.622Z,8.10
2022-11-16T02:10:34.437Z,8.10
2022-11-16T02:13:27.477Z,8.10
2022-11-16T02:16:05.706Z,8.10
2022-11-16T02:18:45.132Z,8.10
2022-11-16T02:21:21.510Z,8.20
2022-11-16T02:24:12.990Z,8.20
2022-11-16T02:27:00.580Z,8.30
2022-11-16T02:29:30.057Z,8.30
2022-11-16T02:32:19.321Z,8.40
2022-11-16T02:34:57.448Z,8.40
2022-11-16T02:37:28.549Z,8.40
2022-11-16T02:39:59.345Z,8.40
2022-11-16T02:42:38.070Z,8.40
2022-11-16T02:45:08.948Z,8.40
2022-11-16T02:47:36.851Z,8.40
2022-11-16T02:50:16.480Z,8.40
2022-11-16T02:52:43.343Z,8.30
2022-11-16T02:55:11.552Z,8.30
2022-11-16T02:58:01.168Z,8.30
2022-11-16T03:00:46.811Z,8.30
2022-11-16T03:03:32.290Z,8.40
2022-11-16T03:06:08.829Z,8.40
2022-11-16T03:08:41.225Z,8.40
2022-11-16T03:11:30.590Z,8.40
2022-11-16T03:14:05.789Z,8.40
2022-11-16T03:16:40.790Z,8.40
2022-11-16T03:19:12.537Z,8.40
2022-11-16T03:22:16.250Z,8.40
2022-11-16T03:24:43.954Z,8.40
2022-11-16T03:27:45.015Z,8.30
2022-11-16T03:30:23.523Z,8.30
2022-11-16T03:33:19.876Z,8.30
2022-11-16T03:36:26.653Z,8.30
2022-11-16T03:38:56.199Z,8.30
2022-11-16T03:41:24.585Z,8.30
2022-11-16T03:43:55.144Z,8.20
2022-11-16T03:46:22.777Z,8.20
2022-11-16T03:48:57.700Z,8.20
2022-11-16T03:51:28.387Z,8.20
2022-11-16T03:53:55.542Z,8.10
2022-11-16T03:56:22.797Z,8.10
2022-11-16T03:58:49.856Z,8.10
2022-11-16T04:01:18.124Z,8.20
2022-11-16T04:03:47.253Z,8.20
2022-11-16T04:06:33.817Z,8.10
2022-11-16T04:09:19.839Z,8.20
2022-11-16T04:12:05.735Z,8.20
2022-11-16T04:14:51.661Z,8.20
2022-11-16T04:17:38.335Z,8.20
2022-11-16T04:20:24.551Z,8.20
2022-11-16T04:23:12.909Z,8.30
2022-11-16T04:25:43.302Z,8.30
2022-11-16T04:28:19.274Z,8.30
2022-11-16T04:31:12.125Z,8.20
2022-11-16T04:34:00.636Z,8.20
2022-11-16T04:36:46.849Z,8.20
2022-11-16T04:39:14.137Z,8.20
2022-11-16T04:42:00.009Z,8.10
2022-11-16T04:44:49.896Z,8.10
2022-11-16T04:47:17.973Z,8.10
2022-11-16T04:49:47.065Z,8.20
2022-11-16T04:52:13.882Z,8.20
2022-11-16T04:54:41.869Z,8.20
2022-11-16T04:57:09.799Z,8.20
2022-11-16T04:59:36.870Z,8.20
2022-11-16T05:02:10.718Z,8.20
2022-11-16T05:04:51.679Z,8.20
2022-11-16T05:07:20.242Z,8.20
2022-11-16T05:09:49.373Z,8.20
2022-11-16T05:12:22.564Z,8.30
2022-11-16T05:14:55.500Z,8.30
2022-11-16T05:17:26.441Z,8.30
2022-11-16T05:20:13.777Z,8.30
2022-11-16T05:22:55.536Z,8.30
2022-11-16T05:25:24.369Z,8.30
2022-11-16T05:27:51.929Z,8.30
2022-11-16T05:30:19.048Z,8.30
2022-11-16T05:32:46.065Z,8.30
2022-11-16T05:35:15.098Z,8.30
2022-11-16T05:37:43.298Z,8.30
2022-11-16T05:40:11.154Z,8.30
2022-11-16T05:42:44.600Z,8.30
2022-11-16T05:45:13.277Z,8.30
2022-11-16T05:47:42.969Z,8.30
2022-11-16T05:50:10.219Z,8.30
2022-11-16T05:52:40.516Z,8.30
2022-11-16T05:55:10.658Z,8.30
2022-11-16T05:57:43.204Z,8.40
2022-11-16T06:00:11.793Z,8.30
2022-11-16T06:02:48.864Z,8.30
2022-11-16T06:08:25.670Z,8.30
2022-11-16T06:10:54.074Z,8.30
2022-11-16T06:13:21.058Z,8.30
2022-11-16T06:15:50.832Z,8.30
2022-11-16T06:18:18.602Z,8.40
2022-11-16T06:20:45.602Z,8.40
2022-11-16T06:23:12.659Z,8.40
2022-11-16T06:25:40.084Z,8.50
2022-11-16T06:28:08.370Z,8.50
2022-11-16T06:30:38.386Z,8.50
2022-11-16T06:33:07.068Z,8.60
2022-11-16T06:35:34.453Z,8.50
2022-11-16T06:38:02.670Z,8.60
2022-11-16T06:40:29.696Z,8.60
2022-11-16T06:42:57.435Z,8.60
2022-11-16T06:45:25.557Z,8.60
2022-11-16T06:47:55.711Z,8.70
2022-11-16T06:50:23.281Z,8.70
2022-11-16T06:52:50.499Z,8.70
2022-11-16T06:55:18.704Z,8.70
2022-11-16T06:57:47.060Z,8.70
2022-11-16T07:00:14.576Z,8.70
2022-11-16T07:02:41.584Z,8.70
2022-11-16T07:05:14.985Z,8.70
2022-11-16T07:07:42.480Z,8.80
2022-11-16T07:10:10.037Z,8.80
2022-11-16T07:12:37.356Z,8.80
2022-11-16T07:15:06.158Z,8.90
2022-11-16T07:17:35.892Z,8.90
2022-11-16T07:20:03.410Z,9.00
2022-11-16T07:22:30.489Z,9.10
2022-11-16T07:24:59.160Z,9.10
2022-11-16T07:27:26.274Z,9.10
2022-11-16T07:29:53.375Z,9.10
2022-11-16T07:32:43.335Z,9.10
2022-11-16T07:35:36.539Z,9.10
2022-11-16T07:38:03.501Z,9.10
2022-11-16T07:40:30.553Z,9.10
2022-11-16T07:42:58.857Z,9.10
2022-11-16T07:46:21.318Z,9.00
2022-11-16T07:48:46.618Z,8.90
2022-11-16T07:51:32.300Z,8.80
2022-11-16T07:54:24.951Z,8.70
2022-11-16T07:56:52.362Z,8.60
2022-11-16T07:59:19.327Z,8.50
2022-11-16T08:01:49.454Z,8.40
2022-11-16T08:04:17.633Z,8.30
2022-11-16T08:06:46.903Z,8.30
2022-11-16T08:09:14.223Z,8.20
2022-11-16T08:11:41.709Z,8.10
2022-11-16T08:14:09.268Z,8.10
2022-11-16T08:16:36.269Z,8.10
2022-11-16T08:19:10.752Z,8.00
2022-11-16T08:21:38.063Z,7.90
2022-11-16T08:24:05.184Z,7.90
2022-11-16T08:26:36.505Z,7.80
2022-11-16T08:29:08.631Z,7.80
2022-11-16T08:31:39.295Z,7.80
2022-11-16T08:34:13.353Z,7.80
2022-11-16T08:36:45.019Z,7.80
2022-11-16T08:39:13.204Z,7.80
2022-11-16T08:41:42.237Z,7.80
2022-11-16T08:44:10.640Z,7.80
2022-11-16T08:46:40.214Z,7.80
2022-11-16T08:49:22.899Z,7.80
2022-11-16T08:51:50.085Z,7.80
2022-11-16T08:54:19.050Z,7.80
2022-11-16T08:56:46.616Z,7.80
2022-11-16T08:59:14.039Z,7.80
2022-11-16T09:01:47.247Z,7.80
2022-11-16T09:04:15.260Z,7.70
2022-11-16T09:06:42.549Z,7.60
2022-11-16T09:09:09.467Z,7.70
2022-11-16T09:11:36.445Z,7.60
2022-11-16T09:14:03.533Z,7.60
2022-11-16T09:16:30.571Z,7.50
2022-11-16T09:18:57.481Z,7.40
2022-11-16T09:21:27.056Z,7.40
2022-11-16T09:23:55.646Z,7.30
2022-11-16T09:26:23.645Z,7.30
2022-11-16T09:29:01.038Z,7.30
2022-11-16T09:31:29.237Z,7.30
2022-11-16T09:33:58.859Z,7.30
2022-11-16T09:36:29.152Z,7.30
2022-11-16T09:39:25.835Z,7.20
2022-11-16T09:42:08.412Z,7.20
2022-11-16T09:45:04.383Z,7.20
2022-11-16T09:47:41.608Z,7.20
2022-11-16T09:50:25.403Z,7.20
2022-11-16T09:52:56.434Z,7.30
2022-11-16T09:55:33.730Z,7.20
2022-11-16T09:58:07.755Z,7.20
2022-11-16T10:00:36.178Z,7.20
2022-11-16T10:03:07.128Z,7.30
2022-11-16T10:05:57.377Z,7.20
2022-11-16T10:08:33.513Z,7.20
2022-11-16T10:11:09.410Z,7.20
2022-11-16T10:13:42.101Z,7.20
2022-11-16T10:16:38.168Z,7.30
2022-11-16T10:19:26.037Z,7.20
2022-11-16T10:22:20.237Z,7.20
2022-11-16T10:25:01.166Z,7.20
2022-11-16T10:27:39.745Z,7.20
2022-11-16T10:30:12.110Z,7.20
2022-11-16T10:32:54.577Z,7.20
2022-11-16T10:35:37.622Z,7.20
2022-11-16T10:38:13.453Z,7.20
2022-11-16T10:40:41.411Z,7.30
2022-11-16T10:43:15.612Z,7.30
2022-11-16T10:45:58.107Z,7.30
2022-11-16T10:48:37.333Z,7.30
2022-11-16T10:51:05.749Z,7.30
2022-11-16T10:53:40.948Z,7.30
2022-11-16T10:56:37.220Z,7.30
2022-11-16T10:59:15.982Z,7.30
2022-11-16T11:01:44.357Z,7.30
2022-11-16T11:04:20.498Z,7.30
2022-11-16T11:06:51.457Z,7.30
2022-11-16T11:09:37.474Z,7.20
2022-11-16T11:12:38.616Z,7.20
2022-11-16T11:15:11.300Z,7.30
2022-11-16T11:17:47.464Z,7.20
2022-11-16T11:20:17.543Z,7.20
2022-11-16T11:22:53.261Z,7.20
2022-11-16T11:25:29.490Z,7.20
2022-11-16T11:28:19.081Z,7.20
2022-11-16T11:30:57.605Z,7.20
2022-11-16T11:33:34.899Z,7.20
2022-11-16T11:36:05.493Z,7.20
2022-11-16T11:38:33.358Z,7.20
2022-11-16T11:41:05.063Z,7.20
2022-11-16T11:43:34.525Z,7.20
2022-11-16T11:46:21.539Z,7.20
2022-11-16T11:48:56.767Z,7.20
2022-11-16T11:51:33.777Z,7.20
2022-11-16T11:54:03.671Z,7.10
2022-11-16T11:56:34.172Z,7.10
2022-11-16T11:59:04.374Z,7.10
2022-11-16T12:01:52.405Z,7.00
2022-11-16T12:04:47.284Z,7.00
2022-11-16T12:07:36.893Z,7.00
2022-11-16T12:10:14.473Z,7.00
2022-11-16T12:12:55.592Z,7.00
2022-11-16T12:15:40.480Z,7.00
2022-11-16T12:18:22.187Z,6.90
2022-11-16T12:21:14.008Z,6.90
2022-11-16T12:23:52.995Z,6.90
2022-11-16T12:26:29.178Z,6.90
2022-11-16T12:29:38.314Z,7.00
2022-11-16T12:32:15.416Z,7.00
2022-11-16T12:35:01.499Z,7.00
2022-11-16T12:37:42.745Z,6.90
2022-11-16T12:40:25.206Z,7.00
2022-11-16T12:43:11.060Z,7.00
2022-11-16T12:46:14.126Z,7.10
2022-11-16T12:48:52.752Z,7.00
2022-11-16T12:51:38.123Z,6.90
2022-11-16T12:54:23.849Z,6.90
2022-11-16T12:57:19.734Z,6.90
2022-11-16T13:00:02.114Z,6.90
2022-11-16T13:02:57.155Z,6.90
2022-11-16T13:05:39.523Z,6.90
2022-11-16T13:08:12.091Z,6.90
2022-11-16T13:10:45.731Z,6.80
2022-11-16T13:13:36.054Z,6.80
2022-11-16T13:16:06.727Z,6.70
2022-11-16T13:18:40.325Z,6.70
2022-11-16T13:21:29.655Z,6.70
2022-11-16T13:24:35.200Z,6.70
2022-11-16T13:27:24.209Z,6.70
2022-11-16T13:29:59.448Z,6.70
2022-11-16T13:32:32.335Z,6.70
2022-11-16T13:35:01.482Z,6.70
2022-11-16T13:37:40.886Z,6.70
2022-11-16T13:40:08.649Z,6.60
2022-11-16T13:42:56.307Z,6.60
2022-11-16T13:45:24.240Z,6.60
2022-11-16T13:47:57.579Z,6.60
2022-11-16T13:50:38.167Z,6.60
2022-11-16T13:56:05.018Z,6.70
2022-11-16T13:58:34.120Z,6.70
2022-11-16T14:01:10.524Z,6.70
2022-11-16T14:03:39.719Z,6.70
2022-11-16T14:06:13.615Z,6.60
2022-11-16T14:08:40.520Z,6.60
2022-11-16T14:11:33.876Z,6.60
2022-11-16T14:14:05.800Z,6.60
2022-11-16T14:16:42.867Z,6.60
2022-11-16T14:19:47.692Z,6.50
2022-11-16T14:22:45.361Z,6.50
2022-11-16T14:25:26.868Z,6.50
2022-11-16T14:28:00.108Z,6.50
2022-11-16T14:30:36.120Z,6.50
2022-11-16T14:33:03.158Z,6.50
2022-11-16T14:35:34.259Z,6.40
2022-11-16T14:38:34.165Z,6.40
2022-11-16T14:41:03.460Z,6.40
2022-11-16T14:43:44.520Z,6.40
2022-11-16T14:46:22.554Z,6.40
2022-11-16T14:48:50.413Z,6.40
2022-11-16T14:51:22.320Z,6.30
2022-11-16T14:53:53.385Z,6.40
2022-11-16T14:56:20.472Z,6.40
2022-11-16T14:58:52.136Z,6.40
2022-11-16T15:01:23.240Z,6.40
2022-11-16T15:03:55.911Z,6.40
2022-11-16T15:06:24.892Z,6.40
2022-11-16T15:09:04.676Z,6.40
2022-11-16T15:11:55.075Z,6.40
2022-11-16T15:14:29.451Z,6.30
2022-11-16T15:16:57.968Z,6.30
2022-11-16T15:19:29.037Z,6.40
2022-11-16T15:21:59.387Z,6.40
2022-11-16T15:24:33.708Z,6.40
2022-11-16T15:27:28.185Z,6.40
2022-11-16T15:29:55.395Z,6.40
2022-11-16T15:32:22.246Z,6.40
2022-11-16T15:34:54.504Z,6.40
2022-11-16T15:37:29.340Z,6.40
2022-11-16T15:39:58.779Z,6.40
2022-11-16T15:42:28.151Z,6.40
2022-11-16T15:44:55.694Z,6.30
2022-11-16T15:47:23.593Z,6.30
2022-11-16T15:49:53.142Z,6.30
2022-11-16T15:52:59.691Z,6.30
2022-11-16T15:55:37.716Z,6.30
2022-11-16T15:58:15.486Z,6.20
2022-11-16T16:00:46.747Z,6.30
2022-11-16T16:03:23.885Z,6.20
2022-11-16T16:05:51.795Z,6.20
2022-11-16T16:08:28.625Z,6.20
2022-11-16T16:11:21.433Z,6.20
2022-11-16T16:14:00.062Z,6.20
2022-11-16T16:16:29.310Z,6.20
2022-11-16T16:19:03.655Z,6.10
2022-11-16T16:21:45.371Z,6.10
2022-11-16T16:24:35.348Z,6.20
2022-11-16T16:27:02.317Z,6.20
2022-11-16T16:29:29.336Z,6.20
2022-11-16T16:31:56.544Z,6.20
2022-11-16T16:34:23.449Z,6.10
2022-11-16T16:36:50.663Z,6.10
2022-11-16T16:39:17.602Z,6.10
2022-11-16T16:41:44.585Z,6.10
2022-11-16T16:44:15.513Z,6.10
2022-11-16T16:46:42.768Z,6.10
2022-11-16T16:49:10.743Z,6.10
2022-11-16T16:51:37.603Z,6.10
2022-11-16T16:54:04.521Z,6.10
2022-11-16T16:56:31.426Z,6.10
2022-11-16T16:58:58.417Z,6.10
2022-11-16T17:01:26.798Z,6.10
2022-11-16T17:03:53.900Z,6.10
2022-11-16T17:06:21.054Z,6.10
2022-11-16T17:08:48.129Z,6.10
2022-11-16T17:11:16.388Z,6.10
2022-11-16T17:13:43.734Z,6.10
2022-11-16T17:16:10.590Z,6.00
2022-11-16T17:18:37.563Z,6.00
2022-11-16T17:21:09.077Z,5.90
2022-11-16T17:23:36.828Z,5.90
2022-11-16T17:26:08.650Z,5.90
2022-11-16T17:28:35.895Z,5.80
2022-11-16T17:31:04.782Z,5.80
2022-11-16T17:33:38.242Z,5.80
2022-11-16T17:36:06.868Z,5.80
2022-11-16T17:38:34.801Z,5.80
2022-11-16T17:41:06.166Z,5.80
2022-11-16T17:43:33.736Z,5.80
2022-11-16T17:46:18.342Z,5.90
2022-11-16T17:48:47.285Z,5.80
2022-11-16T17:51:16.877Z,5.80
2022-11-16T17:53:44.386Z,5.70
2022-11-16T17:56:21.231Z,5.70
2022-11-16T17:58:50.431Z,5.70
2022-11-16T18:01:18.475Z,5.60
2022-11-16T18:03:45.757Z,5.60
2022-11-16T18:06:15.282Z,5.50
2022-11-16T18:08:43.747Z,5.40
2022-11-16T18:11:13.775Z,5.40
2022-11-16T18:13:41.056Z,5.30
2022-11-16T18:16:12.669Z,5.30
2022-11-16T18:18:39.944Z,5.30
2022-11-16T18:21:08.592Z,5.20
2022-11-16T18:23:37.525Z,5.20
2022-11-16T18:26:09.482Z,5.20
2022-11-16T18:28:37.063Z,5.20
2022-11-16T18:31:07.014Z,5.20
2022-11-16T18:33:35.902Z,5.20
